Greifswald — 3FEC8 — position and weather

sailwx.info

Track history (hours):
 
Tides and Currents Weather Stations Pressure Air Temp Water Temp Dewpoint Dewpoint Depression Visibility Wind Speed Wind Dir Waves Ship Positions

Greifswald

Last reported at 2015-Jul-01 20:33 UTC. Time now 2015-Jul-01 21:09 UTC.
Position N 45°34' E 031°47'.

Length 191 m; draft 6.3 m.

Type: Ship. MMSI: 370492000.

Date/timePositionNaut miles runAvg speedWind from/ knotsBaromVisibWave heightAir tempDewpointWater temp
2015-Jul-01 20:33N 45°34' E 031°47'1413.6
2015-Jul-01 19:33N 45°44' E 031°34'1413.7
2015-Jul-01 18:33N 45°54' E 031°20'1413.6
2015-Jul-01 17:33N 46°04' E 031°08'1313.3
2015-Jul-01 16:33N 46°14' E 030°55'128 5.5
2015-Jun-30 17:16N 44°41' E 032°59'52 9.2
2015-Jun-30 11:33N 44°07' E 033°55'8 6.8
2015-Jun-30 10:21N 44°04' E 034°06'6 6.5
2015-Jun-30 09:28N 44°02' E 034°13'6 6.8
2015-Jun-30 08:33N 44°00' E 034°22'10 9.8
2015-Jun-30 07:34N 43°58' E 034°35'9 7.8
2015-Jun-30 06:26N 43°51' E 034°43'12 6.2
2015-Jun-30 04:31N 43°46' E 034°58'  
2015-Jun-27 14:31N 43°52' E 034°31'1615.7
2015-Jun-27 13:29N 43°59' E 034°10'5 0.1
2015-Jun-25 15:22N 44°03' E 034°06'1214.2
2015-Jun-25 14:34N 43°58' E 034°20'1413.6
2015-Jun-25 13:34N 43°53' E 034°38'1313.0
2015-Jun-25 12:34N 43°48' E 034°54'  
2015-Jun-22 15:15N 43°30' E 035°41'1013.7
2015-Jun-22 14:31N 43°34' E 035°29'1313.6
2015-Jun-22 13:33N 43°39' E 035°12'1413.7
2015-Jun-22 12:33N 43°44' E 034°54'1413.6
2015-Jun-22 11:33N 43°50' E 034°37'1413.6
2015-Jun-22 10:34N 43°55' E 034°20'1713.6
2015-Jun-22 09:20N 44°02' E 033°59'5413.3
2015-Jun-22 05:15N 44°37' E 033°01'913.2
2015-Jun-22 04:33N 44°44' E 032°52'1613.5
2015-Jun-22 03:21N 44°56' E 032°37'1213.4
2015-Jun-22 02:26N 45°05' E 032°25'1213.4
2015-Jun-22 01:33N 45°14' E 032°14'1413.5
2015-Jun-22 00:33N 45°24' E 032°01'1313.4
2015-Jun-21 23:33N 45°34' E 031°48'  
Track history (hours):
 
Tides and Currents Weather Stations Pressure Air Temp Water Temp Dewpoint Dewpoint Depression Visibility Wind Speed Wind Dir Waves Ship Positions

Greifswald

Last reported at 2015-Jul-01 20:33 UTC. Time now 2015-Jul-01 21:09 UTC.
Position N 45°34' E 031°47'.

Length 191 m; draft 6.3 m.

Type: Ship. MMSI: 370492000.

Date/timePositionNaut miles runAvg speedWind from/ knotsBaromVisibWave heightAir tempDewpointWater temp
2015-Jul-01 20:33N 45°34' E 031°47'1413.6
2015-Jul-01 19:33N 45°44' E 031°34'1413.7
2015-Jul-01 18:33N 45°54' E 031°20'1413.6
2015-Jul-01 17:33N 46°04' E 031°08'1313.3
2015-Jul-01 16:33N 46°14' E 030°55'128 5.5
2015-Jun-30 17:16N 44°41' E 032°59'52 9.2
2015-Jun-30 11:33N 44°07' E 033°55'8 6.8
2015-Jun-30 10:21N 44°04' E 034°06'6 6.5
2015-Jun-30 09:28N 44°02' E 034°13'6 6.8
2015-Jun-30 08:33N 44°00' E 034°22'10 9.8
2015-Jun-30 07:34N 43°58' E 034°35'9 7.8
2015-Jun-30 06:26N 43°51' E 034°43'12 6.2
2015-Jun-30 04:31N 43°46' E 034°58'  
2015-Jun-27 14:31N 43°52' E 034°31'1615.7
2015-Jun-27 13:29N 43°59' E 034°10'5 0.1
2015-Jun-25 15:22N 44°03' E 034°06'1214.2
2015-Jun-25 14:34N 43°58' E 034°20'1413.6
2015-Jun-25 13:34N 43°53' E 034°38'1313.0
2015-Jun-25 12:34N 43°48' E 034°54'  
2015-Jun-22 15:15N 43°30' E 035°41'1013.7
2015-Jun-22 14:31N 43°34' E 035°29'1313.6
2015-Jun-22 13:33N 43°39' E 035°12'1413.7
2015-Jun-22 12:33N 43°44' E 034°54'1413.6
2015-Jun-22 11:33N 43°50' E 034°37'1413.6
2015-Jun-22 10:34N 43°55' E 034°20'1713.6
2015-Jun-22 09:20N 44°02' E 033°59'5413.3
2015-Jun-22 05:15N 44°37' E 033°01'913.2
2015-Jun-22 04:33N 44°44' E 032°52'1613.5
2015-Jun-22 03:21N 44°56' E 032°37'1213.4
2015-Jun-22 02:26N 45°05' E 032°25'1213.4
2015-Jun-22 01:33N 45°14' E 032°14'1413.5
2015-Jun-22 00:33N 45°24' E 032°01'1313.4
2015-Jun-21 23:33N 45°34' E 031°48'  

Dump ship's entire track history